Sunday, February 25, 2018, 3:49 AM GMT
Back to Local

CWVU, Brier Island, N. S.

Location: , , Canada Lat: 44.286
Local Time: 3:49 AM GMT ( 3:49 GMT) Lon: -66.347
Time Zone: GMT Elev: 52 ft

Show me the last for .
Show Coded

Time T Td Feel RH Dir Speed Gust Alt SLP Vis Weather Sky Remarks
2018-02-25 03:00 38 29 26 69 330° 30 - - 30.25 0 Peak wind: 34 mph (30 kts) from 320° at 58 min
2018-02-25 02:00 39 29 28 67 310° 25 - - 30.21 0 Peak wind: 29 mph (26 kts) from 300° at 01 min
2018-02-25 01:00 40 29 29 65 310° 28 - - 30.18 0 Peak wind: 32 mph (28 kts) from 300° at 25 min
2018-02-25 00:00 41 34 31 75 300° 20 - - 30.16 0 Peak wind: 23 mph (20 kts) from 300° at 46 min
2018-02-24 23:00 41 34 32 78 300° 17 - - 30.12 0 None
2018-02-24 22:00 42 35 33 75 290° 18 - - 30.09 0 Peak wind: 27 mph (24 kts) from 290° at 04 min
2018-02-24 21:00 42 35 35 77 260° 13 - - 30.07 0 Peak wind: 24 mph (21 kts) from 280° at 31 min
2018-02-24 20:00 42 36 34 76 280° 15 21 - 30.04 0 Peak wind: 20 mph (18 kts) from 290° at 59 min
2018-02-24 19:00 43 36 35 77 270° 17 - - 30.03 0 Peak wind: 19 mph (17 kts) from 270° at 46 min
2018-02-24 18:00 44 36 37 73 270° 15 - - 30.01 0 Peak wind: 25 mph (22 kts) from 290° at 05 min
2018-02-24 17:00 42 36 31 78 290° 22 28 - 30.01 0 Peak wind: 31 mph (27 kts) from 290° at 20 min
2018-02-24 16:00 43 37 33 81 290° 26 - - 30.01 0 Peak wind: 31 mph (27 kts) from 280° at 23 min
2018-02-24 15:00 42 38 31 85 290° 26 - - 29.99 0 Peak wind: 32 mph (28 kts) from 280° at 14 min
2018-02-24 14:00 40 39 31 93 280° 22 - - 29.98 0 Peak wind: 25 mph (22 kts) from 280° at 51 min
2018-02-24 13:00 39 38 30 97 270° 20 - - 29.96 0 Peak wind: 26 mph (23 kts) from 270° at 01 min
2018-02-24 12:00 38 38 28 97 270° 23 - - 29.94 0 Peak wind: 28 mph (25 kts) from 260° at 11 min
2018-02-24 11:00 39 38 29 97 260° 21 - - 29.90 0 Peak wind: 27 mph (24 kts) from 260° at 28 min
2018-02-24 10:00 39 39 29 99 270° 21 - - 29.91 0 Peak wind: 26 mph (23 kts) from 270° at 48 min
1-hr Precip Total: 0.01"
2018-02-24 09:00 38 38 34 98 210° 6 - - 29.92 0 None
2018-02-24 08:00 37 35 31 92 170° 7 - - 29.94 0 1-hr Precip Total: 0.01"
2018-02-24 07:00 36 36 28 99 160° 12 - - 29.97 0 Peak wind: 21 mph (19 kts) from 160° at 00 min
Pressure falling rapidly
1-hr Precip Total: 0.01"
2018-02-24 06:00 35 35 26 98 160° 16 - - 30.04 0 Peak wind: 26 mph (23 kts) from 160° at 11 min
1-hr Precip Total: 0.01"
2018-02-24 05:00 34 34 22 98 160° 17 25 - 30.09 0 Peak wind: 28 mph (25 kts) from 150° at 33 min
1-hr Precip Total: 0.07"
2018-02-24 04:00 34 33 21 97 150° 21 26 - 30.15 0 Peak wind: 27 mph (24 kts) from 160° at 12 min
Pressure falling rapidly
1-hr Precip Total: 0.06"

Support USWX by starting your Amazon purchase here.